AirNav   Air Wisconsin Up To $57,000 Bonus
 
 1119 users online  

KNFE Fentress Naval Auxiliary Field
Fentress, Virginia, USA

GOING TO FENTRESS?


FAA INFORMATION EFFECTIVE 26 MARCH 2020

Location

FAA Identifier: NFE
Lat/Long: 36-41-31.3310N 076-08-04.4305W
36-41.522183N 076-08.073842W
36.6920364,-76.1345640
(estimated)
Elevation: 16 ft. / 5 m (estimated)
Variation: 09W (1985)
Time zone: UTC -4 (UTC -5 during Standard Time)
Zip code: 23322

Airport Operations

Airport use: Private use. Permission required prior to landing
Activation date: 08/1943
Control tower: no
ARTCC: WASHINGTON CENTER
FSS: LEESBURG FLIGHT SERVICE STATION
Attendance: UNATNDD
Segmented circle: no
Lights: RY LGTS OPERATED BY CRASH CREW DURING SCHEDULED OPNS.

Airport Communications

OCEANA APPROACH: 123.9
OCEANA DEPARTURE: 123.9
WX AWOS-3 at CPK (9 nm W): 123.675 (757-204-4290)
WX ASOS at NTU (9 nm NE): PHONE DSN 433-3619 or 757-433-3619
WX ASOS at ORF (13 nm N): PHONE 757-460-9348
WX AWOS-3PT at PVG (16 nm W): 118.375 (757-465-2175)
WX AWOS-3 at ONX (18 nm S): 119.775 (252-453-8939)

Nearby radio navigation aids

VOR radial/distance  VOR name  Freq  Var
ORFr172/12.4NORFOLK VORTAC116.9007W
ECGr011/26.1ELIZABETH CITY VOR/DME112.5007W
CCVr199/39.9CAPE CHARLES VORTAC112.2010W

 
NDB name  Hdg/Dist  Freq  Var  ID
INGLE157/10.532909WOR --- .-.
WOODVILLE027/26.925410WLLW .-.. .-.. .--

Airport Services

Runway Information

Runway 5/23

Dimensions: 8004 x 175 ft. / 2440 x 53 m
Surface: asphalt
Weight bearing capacity: 
PCN 40 /R/C/W/T
Runway edge lights: low intensity
RUNWAY 5  RUNWAY 23
Latitude: 36-41.014033N36-42.030333N
Longitude: 076-08.595917W076-07.551767W
Elevation: 14.5 ft.14.2 ft.
Traffic pattern: leftleft
Runway heading: 049 magnetic, 040 true228 magnetic, 219 true
Touchdown point: yes, no lightsyes, no lights

Airport Ownership and Management from official FAA records

Ownership: U.S. Navy
Owner: US NAVY
OCEANOGRAPHIC OFC - CODE 3142
WASHINGTON, DC 20373

Additional Remarks

FOR CD CTC WASHINGTON ARTCC AT 703-771-3587.

Instrument Procedures

There are no published instrument procedures at KNFE.

Some nearby airports with instrument procedures:

KCPK - Chesapeake Regional Airport (9 nm W)
KNTU - Oceana Naval Air Station (Apollo Soucek Field) (9 nm NE)
KORF - Norfolk International Airport (13 nm N)
KPVG - Hampton Roads Executive Airport (16 nm W)
KNGU - Norfolk Naval Station (Chambers Field) (16 nm NW)
KONX - Currituck County Regional Airport (18 nm S)
 
Loc | Ops | Rwys | IFR | FBO | Links
Com | Nav | Svcs | Stats | Notes
Area around KNFE (Fentress Naval Auxiliary Field)
 
Road maps at: MapQuest Bing Google
 
Aerial photo
WARNING: Photo may not be current or correct
Aerial photo of KNFE (Fentress Naval Auxiliary Field)
Do you have a better or more recent aerial photo of Fentress Naval Auxiliary Field that you would like to share? If so, please send us your photo.

 
Sectional chart

 
Airport distance calculator
Flying to Fentress Naval Auxiliary Field? Find the distance to fly.

From to KNFE

Sunrise and sunset
Times for 06-Apr-2020
 Local
(UTC-4)
 Zulu
(UTC)
Morning civil twilight06:1710:17
Sunrise06:4310:43
Sunset19:3123:31
Evening civil twilight19:5723:57

Current date and time
Zulu (UTC)  06-Apr-2020 16:03:28
Local (UTC-4)  06-Apr-2020 12:03:28
 
METAR
KNFE 061556Z AUTO 30007KT 10SM SCT095 22/11 A3004 RMK AO2 SLP175 T02170106
KCPK 
9nm W 
061555Z AUTO 35003KT 10SM BKN090 20/11 A3004 RMK AO2 T02040111
KNTU 
9nm NE 
061556Z 33007KT 10SM FEW040 SCT250 19/12 A3004 RMK AO2 SLP173 T01940117
KORF 
13nm N 
061551Z 31004KT 10SM CLR 21/11 A3004 RMK AO2 SLP172 T02060106
KNGU 
15nm NW 
061559Z 28005KT 10SM FEW110 19/12 A3006 RMK AO2 SLP178 T01940122
KPVG 
16nm W 
061556Z AUTO VRB04KT 10SM CLR 21/11 A3005 RMK AO2 SLP177 T02060111
KONX 
18nm S 
061555Z AUTO 26005KT 10SM SCT110 19/14 RMK AO2 T01940139
TAF
KNTU 
9nm NE 
0607/0707 22007KT 9999 VCSH SCT025 BKN050 OVC080 QNH2999INS TEMPO 0607/0612 8000 -SHRA SCT025 BKN050 OVC080 FM062200 02010KT 9999 SCT025 SCT050 BKN080 QNH2994INS FM070300 VRB06KT 9999 FEW025 SCT050 BKN080 OVC170 QNH2995INS T12/0610Z T17/0620Z AMD 0749Z FN00085
KORF 
13nm N 
061120Z 0612/0712 24006KT P6SM VCSH BKN070 FM061400 33007KT P6SM SCT070 FM061600 04009KT P6SM SCT060 FM070000 07006KT P6SM SCT120
KNGU 
15nm NW 
0609/0707 21007KT 9999 VCSH SCT025 BKN050 OVC080 QNH3000INS TEMPO 0607/0612 31010G18KT 8000 -SHRA SCT025 BKN050 OVC080 FM062200 35010KT 9999 SCT025 SCT050 BKN080 QNH2996INS FM070300 VRB06KT 9999 FEW025 SCT050 BKN080 OVC170 QNH2997INS T13/0610Z T19/0620Z AMD 0924 FN20003
NOTAMs
Click for the latest NOTAMs
NOTAMs are issued by the DoD/FAA and will open in a separate window not controlled by AirNav.

 

 
 

Would you like to see your business listed on this page?

 If your business provides an interesting product or service to pilots, flight crews, aircraft, or users of the Fentress Naval Auxiliary Field, you should consider listing it here.  To start the listing process, click on the button below
 
Add a business
 

Other Pages about Fentress Naval Auxiliary Field

Update a link
 
Copyright © AirNav, LLC. All rights reserved. Privacy Policy  Contact